Xinzhu, Taiwan

4:42 AM CST on September 19, 2014 (GMT +0800)
Peihsi and Crius - XisTW | Change Station
CLOSE
Current Station
Personal Weather Station
Location: Pingzhen, Taoyuan
Elevation: 492 ft
Nearby Weather Stations

Elev 492 ft 24.94 °N, 121.21 °E | Updated 3 seconds ago

Partly Cloudy
Partly Cloudy
81.1 °F
Feels Like 86 °F
N
10.0
Wind Variable Wind from ESE
Gusts 17.0 mph

Today
High -- | Low -- °F
--% Chance of Precip.
Yesterday
High -- | Low -- °F
Precip. -- in
5:43 AM 5:56 PM
Waning Crescent, 24% visible
Pressure 29.71 in
Visibility 6.2 miles
Clouds Few 2000 ft
Heat Index 86 °F
Dew Point 72 °F
Humidity 75%
Rainfall 0.00 in
Snow Depth Not available.
UV 0.0 out of 12
Pollen Not available.
Air Quality Not available.
Flu Activity Not available.
METAR RCTP 182030Z 06020KT 9999 FEW020 29/21 Q1006 WS R05L NOSIG RMK A2973

More Conditions Fewer Conditions

Pressure 29.71 in
Visibility 6.2 miles
Clouds Few 2000 ft
Heat Index 86 °F
Dew Point 72 °F
Humidity 75%
Rainfall 0.00 in
Snow Depth Not available.
UV 0.0 out of 12
Pollen Not available.
Air Quality Not available.
Flu Activity Not available.
METAR RCTP 182030Z 06020KT 9999 FEW020 29/21 Q1006 WS R05L NOSIG RMK A2973

More Conditions Fewer Conditions

10-Day Weather Forecast

Almanac

Astronomy

Sep. 19, 2014 Rise Set
Actual Time 5:43 AM CST 5:56 PM CST
Civil Twilight 5:20 AM CST 6:19 PM CST
Nautical Twilight 4:54 AM CST 6:45 PM CST
Astronomical Twilight 4:27 AM CST 7:12 PM CST
Moon 1:20 AM CST (9/19) 2:42 PM CST (9/19)
Length of Visible Light 12h 58m
Length of Day
12h 12m
Tomorrow will be 1m 26s shorter.
Waning Crescent, 24% of the Moon is Illuminated
Sep 18
Waning Crescent
Sep 24
New
Oct 1
First Quarter
Oct 8
Full
Oct 15
Last Quarter

Yesterday's Extremes

Country Highs Country Lows

Community

WunderPhotos

Upload Photos

1,754,430 photos uploaded!

WunderBlogs® & News

By Dr. Jeff Masters
Director of Meteorology, Weather Underground
By Kari Strenfel
Meteorologist, Weather Underground
By Christopher C. Burt
Weather Historian, Weather Underground
September 18, 2014
September 18, 2014
September 18, 2014

Nearby

Snow Depth

Not available.

Earthquake Activity

City Distance Mag. Time & Date
No recent earthquake activity has been reported nearby.
Minimum magnitude displayed is 2.5.

Coastal Water Temperatures

Place Temperature
No Stations Reporting

Nearby Weather Stations